sensor_id;sensor_type;location;lat;lon;timestamp;P1;durP1;ratioP1;P2;durP2;ratioP2
10641;SDS011;5369;49.586;8.646;2022-10-17T00:01:50;5.10;;;3.10;;
10641;SDS011;5369;49.586;8.646;2022-10-17T00:04:16;5.67;;;3.10;;
10641;SDS011;5369;49.586;8.646;2022-10-17T00:06:43;5.57;;;2.87;;
10641;SDS011;5369;49.586;8.646;2022-10-17T00:09:09;5.87;;;3.57;;
10641;SDS011;5369;49.586;8.646;2022-10-17T00:11:35;6.53;;;3.60;;
10641;SDS011;5369;49.586;8.646;2022-10-17T00:14:01;4.63;;;3.10;;
10641;SDS011;5369;49.586;8.646;2022-10-17T00:16:29;3.90;;;3.00;;
10641;SDS011;5369;49.586;8.646;2022-10-17T00:18:56;7.27;;;3.20;;
10641;SDS011;5369;49.586;8.646;2022-10-17T00:21:23;5.30;;;3.07;;
10641;SDS011;5369;49.586;8.646;2022-10-17T00:23:49;4.80;;;2.90;;
10641;SDS011;5369;49.586;8.646;2022-10-17T00:26:16;3.73;;;2.90;;
10641;SDS011;5369;49.586;8.646;2022-10-17T00:28:44;4.73;;;3.00;;
10641;SDS011;5369;49.586;8.646;2022-10-17T00:31:12;3.63;;;3.17;;
10641;SDS011;5369;49.586;8.646;2022-10-17T00:33:38;3.23;;;2.80;;
10641;SDS011;5369;49.586;8.646;2022-10-17T00:36:08;4.93;;;3.10;;
10641;SDS011;5369;49.586;8.646;2022-10-17T00:38:38;3.20;;;2.77;;
10641;SDS011;5369;49.586;8.646;2022-10-17T00:41:04;3.70;;;3.13;;
10641;SDS011;5369;49.586;8.646;2022-10-17T00:46:15;4.33;;;2.77;;
10641;SDS011;5369;49.586;8.646;2022-10-17T00:48:42;3.93;;;2.60;;
10641;SDS011;5369;49.586;8.646;2022-10-17T00:51:08;5.57;;;3.20;;
10641;SDS011;5369;49.586;8.646;2022-10-17T00:53:35;4.80;;;3.10;;
10641;SDS011;5369;49.586;8.646;2022-10-17T00:56:01;4.53;;;3.33;;
10641;SDS011;5369;49.586;8.646;2022-10-17T00:58:28;4.63;;;3.17;;
10641;SDS011;5369;49.586;8.646;2022-10-17T01:00:54;3.30;;;3.00;;
10641;SDS011;5369;49.586;8.646;2022-10-17T01:03:20;5.33;;;3.33;;
10641;SDS011;5369;49.586;8.646;2022-10-17T01:05:46;5.20;;;3.40;;
10641;SDS011;5369;49.586;8.646;2022-10-17T01:08:12;6.87;;;3.30;;
10641;SDS011;5369;49.586;8.646;2022-10-17T01:26:18;10.07;;;3.17;;
10641;SDS011;5369;49.586;8.646;2022-10-17T01:31:15;5.70;;;3.50;;
10641;SDS011;5369;49.586;8.646;2022-10-17T01:33:50;6.50;;;3.00;;
10641;SDS011;5369;49.586;8.646;2022-10-17T01:36:38;4.27;;;3.10;;
10641;SDS011;5369;49.586;8.646;2022-10-17T01:39:15;5.50;;;2.80;;
10641;SDS011;5369;49.586;8.646;2022-10-17T01:41:44;5.40;;;3.40;;
10641;SDS011;5369;49.586;8.646;2022-10-17T01:44:19;3.77;;;3.13;;
10641;SDS011;5369;49.586;8.646;2022-10-17T01:46:59;5.23;;;3.20;;
10641;SDS011;5369;49.586;8.646;2022-10-17T01:49:28;6.23;;;3.17;;
10641;SDS011;5369;49.586;8.646;2022-10-17T01:51:57;4.03;;;2.73;;
10641;SDS011;5369;49.586;8.646;2022-10-17T01:54:30;5.43;;;2.90;;
10641;SDS011;5369;49.586;8.646;2022-10-17T01:57:00;4.90;;;3.10;;
10641;SDS011;5369;49.586;8.646;2022-10-17T01:59:30;2.80;;;2.60;;
10641;SDS011;5369;49.586;8.646;2022-10-17T02:02:00;5.97;;;3.33;;
10641;SDS011;5369;49.586;8.646;2022-10-17T02:04:27;3.30;;;2.90;;
10641;SDS011;5369;49.586;8.646;2022-10-17T02:06:53;3.80;;;3.33;;
10641;SDS011;5369;49.586;8.646;2022-10-17T02:09:20;7.17;;;3.60;;
10641;SDS011;5369;49.586;8.646;2022-10-17T02:17:18;4.70;;;3.23;;
10641;SDS011;5369;49.586;8.646;2022-10-17T02:19:54;4.13;;;3.00;;
10641;SDS011;5369;49.586;8.646;2022-10-17T02:27:37;6.47;;;3.30;;
10641;SDS011;5369;49.586;8.646;2022-10-17T02:32:39;7.03;;;3.20;;
10641;SDS011;5369;49.586;8.646;2022-10-17T02:35:08;6.07;;;2.97;;
10641;SDS011;5369;49.586;8.646;2022-10-17T02:37:35;4.47;;;2.97;;
10641;SDS011;5369;49.586;8.646;2022-10-17T02:40:02;3.30;;;3.00;;
10641;SDS011;5369;49.586;8.646;2022-10-17T02:42:29;4.07;;;3.40;;
10641;SDS011;5369;49.586;8.646;2022-10-17T02:44:58;6.33;;;3.10;;
10641;SDS011;5369;49.586;8.646;2022-10-17T02:47:43;3.00;;;2.70;;
10641;SDS011;5369;49.586;8.646;2022-10-17T02:50:11;5.30;;;3.20;;
10641;SDS011;5369;49.586;8.646;2022-10-17T02:57:33;3.33;;;2.93;;
10641;SDS011;5369;49.586;8.646;2022-10-17T03:00:03;5.33;;;3.10;;
10641;SDS011;5369;49.586;8.646;2022-10-17T03:02:37;6.93;;;3.30;;
10641;SDS011;5369;49.586;8.646;2022-10-17T03:05:04;5.53;;;3.17;;
10641;SDS011;5369;49.586;8.646;2022-10-17T03:07:31;4.80;;;3.30;;
10641;SDS011;5369;49.586;8.646;2022-10-17T03:09:57;4.10;;;3.07;;
10641;SDS011;5369;49.586;8.646;2022-10-17T03:12:23;4.90;;;3.30;;
10641;SDS011;5369;49.586;8.646;2022-10-17T03:14:51;3.67;;;3.37;;
10641;SDS011;5369;49.586;8.646;2022-10-17T03:17:17;5.33;;;3.10;;
10641;SDS011;5369;49.586;8.646;2022-10-17T03:19:44;3.20;;;2.83;;
10641;SDS011;5369;49.586;8.646;2022-10-17T03:22:10;5.63;;;2.97;;
10641;SDS011;5369;49.586;8.646;2022-10-17T03:24:37;5.03;;;3.10;;
10641;SDS011;5369;49.586;8.646;2022-10-17T03:27:04;3.33;;;3.00;;
10641;SDS011;5369;49.586;8.646;2022-10-17T03:29:30;4.77;;;2.93;;
10641;SDS011;5369;49.586;8.646;2022-10-17T03:31:56;2.80;;;2.60;;
10641;SDS011;5369;49.586;8.646;2022-10-17T03:34:23;5.70;;;2.73;;
10641;SDS011;5369;49.586;8.646;2022-10-17T03:36:50;3.90;;;2.70;;
10641;SDS011;5369;49.586;8.646;2022-10-17T03:39:17;5.47;;;2.80;;
10641;SDS011;5369;49.586;8.646;2022-10-17T03:41:43;4.07;;;2.90;;
10641;SDS011;5369;49.586;8.646;2022-10-17T03:44:10;3.60;;;3.10;;
10641;SDS011;5369;49.586;8.646;2022-10-17T03:46:36;8.60;;;3.00;;
10641;SDS011;5369;49.586;8.646;2022-10-17T03:49:02;4.57;;;3.30;;
10641;SDS011;5369;49.586;8.646;2022-10-17T03:51:29;3.57;;;3.00;;
10641;SDS011;5369;49.586;8.646;2022-10-17T03:54:01;8.63;;;3.20;;
10641;SDS011;5369;49.586;8.646;2022-10-17T03:56:27;3.13;;;2.83;;
10641;SDS011;5369;49.586;8.646;2022-10-17T03:58:58;4.40;;;3.30;;
10641;SDS011;5369;49.586;8.646;2022-10-17T04:01:26;5.00;;;2.90;;
10641;SDS011;5369;49.586;8.646;2022-10-17T04:03:54;4.83;;;3.13;;
10641;SDS011;5369;49.586;8.646;2022-10-17T04:06:22;5.63;;;3.37;;
10641;SDS011;5369;49.586;8.646;2022-10-17T04:08:48;5.27;;;3.10;;
10641;SDS011;5369;49.586;8.646;2022-10-17T04:11:20;3.30;;;3.00;;
10641;SDS011;5369;49.586;8.646;2022-10-17T04:13:50;4.97;;;3.23;;
10641;SDS011;5369;49.586;8.646;2022-10-17T04:16:17;4.15;;;3.55;;
10641;SDS011;5369;49.586;8.646;2022-10-17T04:18:54;5.67;;;3.40;;
10641;SDS011;5369;49.586;8.646;2022-10-17T04:21:26;6.93;;;3.30;;
10641;SDS011;5369;49.586;8.646;2022-10-17T04:23:54;4.97;;;3.43;;
10641;SDS011;5369;49.586;8.646;2022-10-17T04:26:34;9.03;;;3.40;;
10641;SDS011;5369;49.586;8.646;2022-10-17T04:29:01;6.30;;;3.37;;
10641;SDS011;5369;49.586;8.646;2022-10-17T04:31:27;7.87;;;3.60;;
10641;SDS011;5369;49.586;8.646;2022-10-17T04:34:03;6.57;;;3.80;;
10641;SDS011;5369;49.586;8.646;2022-10-17T04:36:29;4.13;;;3.50;;
10641;SDS011;5369;49.586;8.646;2022-10-17T04:38:56;3.30;;;3.00;;
10641;SDS011;5369;49.586;8.646;2022-10-17T04:41:22;4.50;;;3.27;;
10641;SDS011;5369;49.586;8.646;2022-10-17T04:43:48;6.77;;;3.20;;
10641;SDS011;5369;49.586;8.646;2022-10-17T04:46:14;4.17;;;3.27;;
10641;SDS011;5369;49.586;8.646;2022-10-17T04:48:41;4.93;;;3.50;;
10641;SDS011;5369;49.586;8.646;2022-10-17T04:51:10;4.47;;;3.30;;
10641;SDS011;5369;49.586;8.646;2022-10-17T04:53:44;7.63;;;3.30;;
10641;SDS011;5369;49.586;8.646;2022-10-17T04:56:14;3.93;;;3.33;;
10641;SDS011;5369;49.586;8.646;2022-10-17T04:58:42;7.07;;;3.30;;
10641;SDS011;5369;49.586;8.646;2022-10-17T05:01:11;5.05;;;3.60;;
10641;SDS011;5369;49.586;8.646;2022-10-17T05:03:40;4.43;;;3.50;;
10641;SDS011;5369;49.586;8.646;2022-10-17T05:06:07;4.93;;;3.50;;
10641;SDS011;5369;49.586;8.646;2022-10-17T05:08:35;6.60;;;3.43;;
10641;SDS011;5369;49.586;8.646;2022-10-17T05:11:02;5.50;;;3.50;;
10641;SDS011;5369;49.586;8.646;2022-10-17T05:13:28;7.83;;;3.47;;
10641;SDS011;5369;49.586;8.646;2022-10-17T05:15:59;4.03;;;3.20;;
10641;SDS011;5369;49.586;8.646;2022-10-17T05:18:26;6.20;;;3.30;;
10641;SDS011;5369;49.586;8.646;2022-10-17T05:20:52;4.03;;;3.00;;
10641;SDS011;5369;49.586;8.646;2022-10-17T05:23:18;5.33;;;3.47;;
10641;SDS011;5369;49.586;8.646;2022-10-17T05:25:45;6.70;;;3.50;;
10641;SDS011;5369;49.586;8.646;2022-10-17T05:28:11;10.90;;;3.67;;
10641;SDS011;5369;49.586;8.646;2022-10-17T05:30:39;7.07;;;3.60;;
10641;SDS011;5369;49.586;8.646;2022-10-17T05:33:07;11.10;;;3.70;;
10641;SDS011;5369;49.586;8.646;2022-10-17T05:35:33;5.63;;;3.37;;
10641;SDS011;5369;49.586;8.646;2022-10-17T05:38:00;7.97;;;3.90;;
10641;SDS011;5369;49.586;8.646;2022-10-17T05:40:28;5.73;;;3.87;;
10641;SDS011;5369;49.586;8.646;2022-10-17T05:42:54;4.77;;;3.90;;
10641;SDS011;5369;49.586;8.646;2022-10-17T05:45:21;4.63;;;3.60;;
10641;SDS011;5369;49.586;8.646;2022-10-17T05:47:47;4.43;;;3.40;;
10641;SDS011;5369;49.586;8.646;2022-10-17T05:50:15;4.87;;;4.07;;
10641;SDS011;5369;49.586;8.646;2022-10-17T05:53:04;6.60;;;3.60;;
10641;SDS011;5369;49.586;8.646;2022-10-17T05:55:34;5.97;;;3.67;;
10641;SDS011;5369;49.586;8.646;2022-10-17T05:58:01;4.97;;;4.00;;
10641;SDS011;5369;49.586;8.646;2022-10-17T06:00:32;8.00;;;4.17;;
10641;SDS011;5369;49.586;8.646;2022-10-17T06:02:58;6.47;;;3.70;;
10641;SDS011;5369;49.586;8.646;2022-10-17T06:05:24;5.77;;;3.70;;
10641;SDS011;5369;49.586;8.646;2022-10-17T06:07:50;8.57;;;3.67;;
10641;SDS011;5369;49.586;8.646;2022-10-17T06:10:21;5.03;;;3.53;;
10641;SDS011;5369;49.586;8.646;2022-10-17T06:12:47;4.30;;;3.37;;
10641;SDS011;5369;49.586;8.646;2022-10-17T06:15:14;5.63;;;3.30;;
10641;SDS011;5369;49.586;8.646;2022-10-17T06:17:43;5.03;;;3.13;;
10641;SDS011;5369;49.586;8.646;2022-10-17T06:20:10;4.23;;;3.20;;
10641;SDS011;5369;49.586;8.646;2022-10-17T06:22:36;5.27;;;3.57;;
10641;SDS011;5369;49.586;8.646;2022-10-17T06:25:06;9.27;;;4.10;;
10641;SDS011;5369;49.586;8.646;2022-10-17T06:27:32;8.63;;;4.53;;
10641;SDS011;5369;49.586;8.646;2022-10-17T06:29:59;6.93;;;3.80;;
10641;SDS011;5369;49.586;8.646;2022-10-17T06:32:27;5.93;;;3.93;;
10641;SDS011;5369;49.586;8.646;2022-10-17T06:34:52;8.97;;;3.90;;
10641;SDS011;5369;49.586;8.646;2022-10-17T06:37:18;7.70;;;3.77;;
10641;SDS011;5369;49.586;8.646;2022-10-17T06:39:45;6.40;;;4.50;;
10641;SDS011;5369;49.586;8.646;2022-10-17T06:42:15;9.10;;;4.00;;
10641;SDS011;5369;49.586;8.646;2022-10-17T06:44:47;7.57;;;4.40;;
10641;SDS011;5369;49.586;8.646;2022-10-17T06:47:29;9.27;;;4.37;;
10641;SDS011;5369;49.586;8.646;2022-10-17T06:49:58;6.33;;;4.20;;
10641;SDS011;5369;49.586;8.646;2022-10-17T06:52:30;5.90;;;4.30;;
10641;SDS011;5369;49.586;8.646;2022-10-17T06:55:25;6.60;;;4.20;;
10641;SDS011;5369;49.586;8.646;2022-10-17T06:58:07;6.00;;;4.10;;
10641;SDS011;5369;49.586;8.646;2022-10-17T07:00:43;5.37;;;4.47;;
10641;SDS011;5369;49.586;8.646;2022-10-17T07:03:10;7.10;;;4.23;;
10641;SDS011;5369;49.586;8.646;2022-10-17T07:05:36;4.77;;;4.20;;
10641;SDS011;5369;49.586;8.646;2022-10-17T07:08:03;6.03;;;4.27;;
10641;SDS011;5369;49.586;8.646;2022-10-17T07:10:29;5.67;;;4.43;;
10641;SDS011;5369;49.586;8.646;2022-10-17T07:13:02;6.87;;;4.70;;
10641;SDS011;5369;49.586;8.646;2022-10-17T07:15:31;6.17;;;4.40;;
10641;SDS011;5369;49.586;8.646;2022-10-17T07:17:57;6.53;;;4.70;;
10641;SDS011;5369;49.586;8.646;2022-10-17T07:20:23;6.50;;;4.40;;
10641;SDS011;5369;49.586;8.646;2022-10-17T07:22:49;5.70;;;4.20;;
10641;SDS011;5369;49.586;8.646;2022-10-17T07:25:15;5.80;;;4.20;;
10641;SDS011;5369;49.586;8.646;2022-10-17T07:27:49;8.33;;;4.50;;
10641;SDS011;5369;49.586;8.646;2022-10-17T07:30:16;7.20;;;4.37;;
10641;SDS011;5369;49.586;8.646;2022-10-17T07:32:52;4.63;;;4.17;;
10641;SDS011;5369;49.586;8.646;2022-10-17T07:35:18;7.97;;;4.60;;
10641;SDS011;5369;49.586;8.646;2022-10-17T07:37:46;5.13;;;4.60;;
10641;SDS011;5369;49.586;8.646;2022-10-17T07:40:13;5.53;;;4.50;;
10641;SDS011;5369;49.586;8.646;2022-10-17T07:42:39;7.47;;;4.97;;
10641;SDS011;5369;49.586;8.646;2022-10-17T07:45:05;7.53;;;4.83;;
10641;SDS011;5369;49.586;8.646;2022-10-17T07:47:32;5.17;;;4.23;;
10641;SDS011;5369;49.586;8.646;2022-10-17T07:50:03;5.83;;;4.60;;
10641;SDS011;5369;49.586;8.646;2022-10-17T07:52:30;7.23;;;4.23;;
10641;SDS011;5369;49.586;8.646;2022-10-17T07:54:56;7.40;;;4.70;;
10641;SDS011;5369;49.586;8.646;2022-10-17T07:57:21;7.67;;;4.70;;
10641;SDS011;5369;49.586;8.646;2022-10-17T07:59:47;7.77;;;4.80;;
10641;SDS011;5369;49.586;8.646;2022-10-17T08:02:22;8.20;;;4.87;;
10641;SDS011;5369;49.586;8.646;2022-10-17T08:04:49;6.93;;;4.80;;
10641;SDS011;5369;49.586;8.646;2022-10-17T08:07:16;6.40;;;4.97;;
10641;SDS011;5369;49.586;8.646;2022-10-17T08:09:42;8.70;;;5.27;;
10641;SDS011;5369;49.586;8.646;2022-10-17T08:12:08;5.33;;;4.53;;
10641;SDS011;5369;49.586;8.646;2022-10-17T08:14:35;11.00;;;4.83;;
10641;SDS011;5369;49.586;8.646;2022-10-17T08:17:01;6.87;;;4.90;;
10641;SDS011;5369;49.586;8.646;2022-10-17T08:19:27;7.70;;;5.47;;
10641;SDS011;5369;49.586;8.646;2022-10-17T08:21:52;8.90;;;5.40;;
10641;SDS011;5369;49.586;8.646;2022-10-17T08:24:19;6.40;;;5.37;;
10641;SDS011;5369;49.586;8.646;2022-10-17T08:26:45;8.33;;;5.10;;
10641;SDS011;5369;49.586;8.646;2022-10-17T08:29:14;7.63;;;5.40;;
10641;SDS011;5369;49.586;8.646;2022-10-17T08:31:41;9.33;;;5.00;;
10641;SDS011;5369;49.586;8.646;2022-10-17T08:34:07;7.87;;;4.40;;
10641;SDS011;5369;49.586;8.646;2022-10-17T08:36:34;6.97;;;4.73;;
10641;SDS011;5369;49.586;8.646;2022-10-17T08:39:01;10.67;;;4.50;;
10641;SDS011;5369;49.586;8.646;2022-10-17T08:46:33;9.97;;;4.63;;
10641;SDS011;5369;49.586;8.646;2022-10-17T08:49:00;6.73;;;4.77;;
10641;SDS011;5369;49.586;8.646;2022-10-17T08:51:29;9.00;;;4.77;;
10641;SDS011;5369;49.586;8.646;2022-10-17T08:54:03;9.60;;;7.00;;
10641;SDS011;5369;49.586;8.646;2022-10-17T08:56:39;8.23;;;5.70;;
10641;SDS011;5369;49.586;8.646;2022-10-17T08:59:09;7.87;;;4.90;;
10641;SDS011;5369;49.586;8.646;2022-10-17T09:06:57;7.47;;;4.10;;
10641;SDS011;5369;49.586;8.646;2022-10-17T09:09:35;6.20;;;4.00;;
10641;SDS011;5369;49.586;8.646;2022-10-17T09:12:10;4.73;;;3.20;;
10641;SDS011;5369;49.586;8.646;2022-10-17T09:14:48;4.17;;;3.30;;
10641;SDS011;5369;49.586;8.646;2022-10-17T09:17:20;4.87;;;3.37;;
10641;SDS011;5369;49.586;8.646;2022-10-17T09:19:59;4.57;;;3.40;;
10641;SDS011;5369;49.586;8.646;2022-10-17T09:22:27;5.87;;;3.10;;
10641;SDS011;5369;49.586;8.646;2022-10-17T09:25:01;5.70;;;3.00;;
10641;SDS011;5369;49.586;8.646;2022-10-17T09:27:32;6.30;;;3.17;;
10641;SDS011;5369;49.586;8.646;2022-10-17T09:30:45;4.30;;;2.90;;
10641;SDS011;5369;49.586;8.646;2022-10-17T09:32:45;5.80;;;2.77;;
10641;SDS011;5369;49.586;8.646;2022-10-17T09:35:12;6.70;;;3.13;;
10641;SDS011;5369;49.586;8.646;2022-10-17T09:37:39;3.10;;;2.80;;
10641;SDS011;5369;49.586;8.646;2022-10-17T09:40:06;3.47;;;3.00;;
10641;SDS011;5369;49.586;8.646;2022-10-17T09:42:37;4.03;;;3.30;;
10641;SDS011;5369;49.586;8.646;2022-10-17T09:45:13;8.77;;;3.07;;
10641;SDS011;5369;49.586;8.646;2022-10-17T09:47:49;6.33;;;3.00;;
10641;SDS011;5369;49.586;8.646;2022-10-17T09:50:20;3.60;;;2.90;;
10641;SDS011;5369;49.586;8.646;2022-10-17T09:52:52;8.03;;;2.90;;
10641;SDS011;5369;49.586;8.646;2022-10-17T09:55:21;3.70;;;3.13;;
10641;SDS011;5369;49.586;8.646;2022-10-17T09:57:52;6.00;;;3.00;;
10641;SDS011;5369;49.586;8.646;2022-10-17T10:00:40;4.03;;;3.17;;
10641;SDS011;5369;49.586;8.646;2022-10-17T10:05:37;4.17;;;2.57;;
10641;SDS011;5369;49.586;8.646;2022-10-17T10:08:14;3.80;;;2.77;;
10641;SDS011;5369;49.586;8.646;2022-10-17T10:10:41;4.43;;;2.90;;
10641;SDS011;5369;49.586;8.646;2022-10-17T10:15:41;6.13;;;2.80;;
10641;SDS011;5369;49.586;8.646;2022-10-17T10:23:38;6.93;;;2.90;;
10641;SDS011;5369;49.586;8.646;2022-10-17T10:26:27;2.90;;;2.60;;
10641;SDS011;5369;49.586;8.646;2022-10-17T10:31:23;3.43;;;2.67;;
10641;SDS011;5369;49.586;8.646;2022-10-17T10:33:50;6.30;;;2.93;;
10641;SDS011;5369;49.586;8.646;2022-10-17T10:36:17;6.87;;;2.80;;
10641;SDS011;5369;49.586;8.646;2022-10-17T10:38:53;5.60;;;2.60;;
10641;SDS011;5369;49.586;8.646;2022-10-17T10:41:21;4.57;;;2.40;;
10641;SDS011;5369;49.586;8.646;2022-10-17T10:43:48;3.60;;;2.40;;
10641;SDS011;5369;49.586;8.646;2022-10-17T10:46:17;4.57;;;2.93;;
10641;SDS011;5369;49.586;8.646;2022-10-17T10:48:54;3.40;;;2.77;;
10641;SDS011;5369;49.586;8.646;2022-10-17T10:51:31;3.93;;;2.63;;
10641;SDS011;5369;49.586;8.646;2022-10-17T10:54:17;6.13;;;3.47;;
10641;SDS011;5369;49.586;8.646;2022-10-17T10:56:50;7.23;;;2.97;;
10641;SDS011;5369;49.586;8.646;2022-10-17T10:59:29;4.73;;;2.60;;
10641;SDS011;5369;49.586;8.646;2022-10-17T11:02:03;5.73;;;2.83;;
10641;SDS011;5369;49.586;8.646;2022-10-17T11:05:19;3.27;;;2.50;;
10641;SDS011;5369;49.586;8.646;2022-10-17T11:07:26;4.10;;;2.40;;
10641;SDS011;5369;49.586;8.646;2022-10-17T11:12:24;3.87;;;2.60;;
10641;SDS011;5369;49.586;8.646;2022-10-17T11:15:00;3.90;;;2.73;;
10641;SDS011;5369;49.586;8.646;2022-10-17T11:17:34;5.40;;;2.83;;
10641;SDS011;5369;49.586;8.646;2022-10-17T11:20:05;4.90;;;2.50;;
10641;SDS011;5369;49.586;8.646;2022-10-17T11:22:40;2.93;;;2.63;;
10641;SDS011;5369;49.586;8.646;2022-10-17T11:25:16;5.30;;;2.60;;
10641;SDS011;5369;49.586;8.646;2022-10-17T11:27:44;5.43;;;2.60;;
10641;SDS011;5369;49.586;8.646;2022-10-17T11:30:11;9.53;;;2.90;;
10641;SDS011;5369;49.586;8.646;2022-10-17T11:32:40;4.50;;;2.50;;
10641;SDS011;5369;49.586;8.646;2022-10-17T11:38:49;3.63;;;2.67;;
10641;SDS011;5369;49.586;8.646;2022-10-17T11:40:45;5.03;;;2.63;;
10641;SDS011;5369;49.586;8.646;2022-10-17T11:43:20;9.57;;;2.77;;
10641;SDS011;5369;49.586;8.646;2022-10-17T11:45:49;3.20;;;2.40;;
10641;SDS011;5369;49.586;8.646;2022-10-17T11:51:04;4.87;;;2.63;;
10641;SDS011;5369;49.586;8.646;2022-10-17T11:54:16;3.07;;;2.40;;
10641;SDS011;5369;49.586;8.646;2022-10-17T11:56:30;4.03;;;2.53;;
10641;SDS011;5369;49.586;8.646;2022-10-17T12:01:43;6.50;;;2.70;;
10641;SDS011;5369;49.586;8.646;2022-10-17T12:09:18;2.80;;;2.57;;
10641;SDS011;5369;49.586;8.646;2022-10-17T12:11:55;5.40;;;2.47;;
10641;SDS011;5369;49.586;8.646;2022-10-17T12:14:41;2.90;;;2.57;;
10641;SDS011;5369;49.586;8.646;2022-10-17T12:19:53;7.50;;;2.67;;
10641;SDS011;5369;49.586;8.646;2022-10-17T12:22:20;5.70;;;2.80;;
10641;SDS011;5369;49.586;8.646;2022-10-17T12:25:00;4.30;;;2.63;;
10641;SDS011;5369;49.586;8.646;2022-10-17T12:27:31;3.97;;;2.57;;
10641;SDS011;5369;49.586;8.646;2022-10-17T12:30:20;4.63;;;2.93;;
10641;SDS011;5369;49.586;8.646;2022-10-17T12:35:21;4.10;;;2.50;;
10641;SDS011;5369;49.586;8.646;2022-10-17T12:41:14;3.97;;;2.47;;
10641;SDS011;5369;49.586;8.646;2022-10-17T12:48:44;6.47;;;2.90;;
10641;SDS011;5369;49.586;8.646;2022-10-17T12:51:15;3.60;;;2.47;;
10641;SDS011;5369;49.586;8.646;2022-10-17T12:56:40;4.40;;;2.20;;
10641;SDS011;5369;49.586;8.646;2022-10-17T12:59:27;5.00;;;2.47;;
10641;SDS011;5369;49.586;8.646;2022-10-17T13:01:56;5.93;;;2.43;;
10641;SDS011;5369;49.586;8.646;2022-10-17T13:04:24;3.17;;;2.37;;
10641;SDS011;5369;49.586;8.646;2022-10-17T13:06:51;3.53;;;2.47;;
10641;SDS011;5369;49.586;8.646;2022-10-17T13:09:22;5.77;;;2.60;;
10641;SDS011;5369;49.586;8.646;2022-10-17T13:11:49;3.07;;;2.30;;
10641;SDS011;5369;49.586;8.646;2022-10-17T13:14:17;4.27;;;2.70;;
10641;SDS011;5369;49.586;8.646;2022-10-17T13:16:54;3.40;;;2.37;;
10641;SDS011;5369;49.586;8.646;2022-10-17T13:19:23;5.10;;;2.40;;
10641;SDS011;5369;49.586;8.646;2022-10-17T13:21:50;5.57;;;2.17;;
10641;SDS011;5369;49.586;8.646;2022-10-17T13:26:46;3.80;;;2.40;;
10641;SDS011;5369;49.586;8.646;2022-10-17T13:29:13;5.63;;;2.80;;
10641;SDS011;5369;49.586;8.646;2022-10-17T13:31:40;2.20;;;2.00;;
10641;SDS011;5369;49.586;8.646;2022-10-17T13:34:16;5.13;;;2.40;;
10641;SDS011;5369;49.586;8.646;2022-10-17T13:36:42;3.63;;;2.20;;
10641;SDS011;5369;49.586;8.646;2022-10-17T13:39:09;3.37;;;2.20;;
10641;SDS011;5369;49.586;8.646;2022-10-17T13:41:39;2.60;;;2.13;;
10641;SDS011;5369;49.586;8.646;2022-10-17T13:44:12;5.40;;;2.10;;
10641;SDS011;5369;49.586;8.646;2022-10-17T13:46:39;4.23;;;2.40;;
10641;SDS011;5369;49.586;8.646;2022-10-17T13:51:47;3.50;;;2.60;;
10641;SDS011;5369;49.586;8.646;2022-10-17T13:55:04;4.87;;;2.40;;
10641;SDS011;5369;49.586;8.646;2022-10-17T13:57:16;4.70;;;2.20;;
10641;SDS011;5369;49.586;8.646;2022-10-17T13:59:45;4.40;;;2.40;;
10641;SDS011;5369;49.586;8.646;2022-10-17T14:02:33;4.80;;;2.50;;
10641;SDS011;5369;49.586;8.646;2022-10-17T14:05:19;3.17;;;2.40;;
10641;SDS011;5369;49.586;8.646;2022-10-17T14:12:45;2.87;;;2.57;;
10641;SDS011;5369;49.586;8.646;2022-10-17T14:15:12;3.43;;;2.30;;
10641;SDS011;5369;49.586;8.646;2022-10-17T14:17:39;3.93;;;2.63;;
10641;SDS011;5369;49.586;8.646;2022-10-17T14:20:05;3.80;;;2.40;;
10641;SDS011;5369;49.586;8.646;2022-10-17T14:22:33;4.70;;;2.50;;
10641;SDS011;5369;49.586;8.646;2022-10-17T14:25:00;4.40;;;2.90;;
10641;SDS011;5369;49.586;8.646;2022-10-17T14:29:54;5.57;;;2.47;;
10641;SDS011;5369;49.586;8.646;2022-10-17T14:32:22;5.13;;;2.60;;
10641;SDS011;5369;49.586;8.646;2022-10-17T14:34:51;4.53;;;2.67;;
10641;SDS011;5369;49.586;8.646;2022-10-17T14:37:23;5.60;;;2.83;;
10641;SDS011;5369;49.586;8.646;2022-10-17T14:39:52;3.17;;;2.40;;
10641;SDS011;5369;49.586;8.646;2022-10-17T14:42:21;4.30;;;2.70;;
10641;SDS011;5369;49.586;8.646;2022-10-17T14:44:48;4.03;;;2.67;;
10641;SDS011;5369;49.586;8.646;2022-10-17T14:47:16;4.20;;;2.60;;
10641;SDS011;5369;49.586;8.646;2022-10-17T14:49:47;6.63;;;2.60;;
10641;SDS011;5369;49.586;8.646;2022-10-17T14:54:40;4.27;;;2.90;;
10641;SDS011;5369;49.586;8.646;2022-10-17T14:57:22;5.13;;;3.33;;
10641;SDS011;5369;49.586;8.646;2022-10-17T14:59:48;6.00;;;2.97;;
10641;SDS011;5369;49.586;8.646;2022-10-17T15:02:15;3.97;;;2.97;;
10641;SDS011;5369;49.586;8.646;2022-10-17T15:04:41;4.83;;;3.10;;
10641;SDS011;5369;49.586;8.646;2022-10-17T15:07:12;3.23;;;2.90;;
10641;SDS011;5369;49.586;8.646;2022-10-17T15:09:39;6.13;;;3.33;;
10641;SDS011;5369;49.586;8.646;2022-10-17T15:12:06;4.93;;;3.20;;
10641;SDS011;5369;49.586;8.646;2022-10-17T15:14:32;7.90;;;3.50;;
10641;SDS011;5369;49.586;8.646;2022-10-17T15:16:59;6.60;;;3.37;;
10641;SDS011;5369;49.586;8.646;2022-10-17T15:19:25;8.53;;;3.87;;
10641;SDS011;5369;49.586;8.646;2022-10-17T15:21:51;5.90;;;3.27;;
10641;SDS011;5369;49.586;8.646;2022-10-17T15:24:18;4.57;;;3.30;;
10641;SDS011;5369;49.586;8.646;2022-10-17T15:26:44;7.20;;;3.30;;
10641;SDS011;5369;49.586;8.646;2022-10-17T15:29:13;3.43;;;3.13;;
10641;SDS011;5369;49.586;8.646;2022-10-17T15:31:39;3.63;;;3.10;;
10641;SDS011;5369;49.586;8.646;2022-10-17T15:34:06;4.90;;;3.40;;
10641;SDS011;5369;49.586;8.646;2022-10-17T15:36:38;4.87;;;3.70;;
10641;SDS011;5369;49.586;8.646;2022-10-17T15:39:04;4.57;;;3.73;;
10641;SDS011;5369;49.586;8.646;2022-10-17T15:41:31;6.47;;;3.90;;
10641;SDS011;5369;49.586;8.646;2022-10-17T15:43:57;6.33;;;4.60;;
10641;SDS011;5369;49.586;8.646;2022-10-17T15:46:25;4.87;;;4.07;;
10641;SDS011;5369;49.586;8.646;2022-10-17T15:48:52;6.80;;;4.27;;
10641;SDS011;5369;49.586;8.646;2022-10-17T15:51:19;6.87;;;4.23;;
10641;SDS011;5369;49.586;8.646;2022-10-17T15:53:45;5.93;;;4.10;;
10641;SDS011;5369;49.586;8.646;2022-10-17T15:56:21;5.23;;;3.90;;
10641;SDS011;5369;49.586;8.646;2022-10-17T15:58:48;5.40;;;3.50;;
10641;SDS011;5369;49.586;8.646;2022-10-17T16:01:22;5.37;;;3.50;;
10641;SDS011;5369;49.586;8.646;2022-10-17T16:03:49;4.80;;;3.40;;
10641;SDS011;5369;49.586;8.646;2022-10-17T16:06:17;3.90;;;3.10;;
10641;SDS011;5369;49.586;8.646;2022-10-17T16:08:44;5.87;;;3.00;;
10641;SDS011;5369;49.586;8.646;2022-10-17T16:11:13;3.97;;;2.93;;
10641;SDS011;5369;49.586;8.646;2022-10-17T16:13:41;4.10;;;3.10;;
10641;SDS011;5369;49.586;8.646;2022-10-17T16:16:10;5.67;;;3.60;;
10641;SDS011;5369;49.586;8.646;2022-10-17T16:18:36;8.13;;;4.93;;
10641;SDS011;5369;49.586;8.646;2022-10-17T16:21:03;5.37;;;4.17;;
10641;SDS011;5369;49.586;8.646;2022-10-17T16:23:29;7.20;;;4.60;;
10641;SDS011;5369;49.586;8.646;2022-10-17T16:25:55;6.07;;;4.90;;
10641;SDS011;5369;49.586;8.646;2022-10-17T16:28:21;8.33;;;5.70;;
10641;SDS011;5369;49.586;8.646;2022-10-17T16:30:48;6.13;;;5.30;;
10641;SDS011;5369;49.586;8.646;2022-10-17T16:33:14;7.80;;;6.20;;
10641;SDS011;5369;49.586;8.646;2022-10-17T16:35:40;14.60;;;13.17;;
10641;SDS011;5369;49.586;8.646;2022-10-17T16:38:06;10.73;;;9.63;;
10641;SDS011;5369;49.586;8.646;2022-10-17T16:40:32;18.40;;;16.70;;
10641;SDS011;5369;49.586;8.646;2022-10-17T16:42:59;22.67;;;20.37;;
10641;SDS011;5369;49.586;8.646;2022-10-17T16:45:25;29.00;;;26.23;;
10641;SDS011;5369;49.586;8.646;2022-10-17T16:47:51;33.90;;;30.63;;
10641;SDS011;5369;49.586;8.646;2022-10-17T16:50:19;31.95;;;28.92;;
10641;SDS011;5369;49.586;8.646;2022-10-17T16:52:45;32.40;;;29.10;;
10641;SDS011;5369;49.586;8.646;2022-10-17T16:55:11;49.63;;;41.37;;
10641;SDS011;5369;49.586;8.646;2022-10-17T16:57:38;32.60;;;28.50;;
10641;SDS011;5369;49.586;8.646;2022-10-17T17:00:04;32.20;;;25.40;;
10641;SDS011;5369;49.586;8.646;2022-10-17T17:02:31;47.28;;;40.95;;
10641;SDS011;5369;49.586;8.646;2022-10-17T17:04:57;45.33;;;35.33;;